Archival Weather

Half Moon Bay

Half Moon Bay, California (KHAF)

Report from: Thursday, September 21, 2023 8:35 AM PDT
Current time: Sunday, July 14, 2024 4:26 AM PDT

Current weather – Weather history – Daily summaries
Weather forecast

Present weatherHaze
Temperature15.0°C (59.0°F)
Dew point11.0°C (51.8°F)
Winds Calm
Visibility4 mi. (6.4 km)
Clouds Sky clear
Altimeter29.90 in.Hg (1013 mB)
Relative humidity77 %
Density altitude209 ft. (64 m)
Remarks Fully automated report
Automated weather observing station with precipitation discriminator
Flight conditions Marginal Visual Meteorological Conditions
Raw dataKHAF 211535Z AUTO 00000KT 4SM HZ CLR 15/11 A2990 RMK AO2
An error has occurred. This application may no longer respond until reloaded. Reload 🗙